Time;durP1;ratioP1;P1;durP2;ratioP2;P2;SDS_P1;SDS_P2;PMS_P1;PMS_P2;Temp;Humidity;BMP_temperature;BMP_pressure;BME280_temperature;BME280_humidity;BME280_pressure;Samples;Min_cycle;Max_cycle;Signal;HPM_P1;HPM_P2
2023/08/25 00:00:58;;;;;;;23.45;14.90;;;;;;;;;;4999610;28;20178;-67
2023/08/25 00:03:23;;;;;;;28.02;18.13;;;;;;;;;;4998376;28;20502;-67
2023/08/25 00:05:51;;;;;;;29.63;17.42;;;;;;;;;;4998890;28;20460;-67
2023/08/25 00:08:16;;;;;;;22.38;16.30;;;;;;;;;;4997239;28;20106;-67
2023/08/25 00:10:41;;;;;;;25.40;15.32;;;;;;;;;;4999964;28;20033;-66
2023/08/25 00:13:09;;;;;;;30.85;18.52;;;;;;;;;;4999331;28;20055;-67
2023/08/25 00:15:35;;;;;;;25.60;16.80;;;;;;;;;;4988592;28;20030;-67
2023/08/25 00:18:05;;;;;;;21.77;14.88;;;;;;;;;;5016886;28;20673;-67
2023/08/25 00:20:31;;;;;;;18.52;15.15;;;;;;;;;;5020087;28;20040;-67
2023/08/25 00:22:59;;;;;;;27.75;14.40;;;;;;;;;;5019664;28;20044;-67
2023/08/25 00:25:24;;;;;;;22.63;14.20;;;;;;;;;;5017532;28;20037;-67
2023/08/25 00:27:50;;;;;;;25.92;14.20;;;;;;;;;;5020702;28;20048;-67
2023/08/25 00:30:17;;;;;;;24.35;14.65;;;;;;;;;;5023164;28;20048;-67
2023/08/25 00:32:42;;;;;;;22.83;14.15;;;;;;;;;;5017515;28;20494;-67
2023/08/25 00:35:10;;;;;;;20.83;14.48;;;;;;;;;;5018489;28;20167;-67
2023/08/25 00:37:35;;;;;;;22.25;14.90;;;;;;;;;;5019600;28;20043;-67
2023/08/25 00:40:00;;;;;;;26.58;15.90;;;;;;;;;;5021636;28;20535;-67
2023/08/25 00:42:28;;;;;;;21.70;16.00;;;;;;;;;;5022674;28;20044;-67
2023/08/25 00:44:55;;;;;;;24.95;18.95;;;;;;;;;;5018869;28;20453;-67
2023/08/25 00:47:21;;;;;;;27.35;22.98;;;;;;;;;;5014419;28;20043;-67
2023/08/25 00:49:47;;;;;;;27.48;23.10;;;;;;;;;;5021012;28;20028;-67
2023/08/25 00:52:16;;;;;;;29.83;19.52;;;;;;;;;;5018456;28;20051;-69
2023/08/25 00:54:43;;;;;;;23.27;17.17;;;;;;;;;;5019422;28;20110;-66
2023/08/25 00:57:08;;;;;;;19.15;15.68;;;;;;;;;;5020703;28;20521;-67
2023/08/25 00:59:34;;;;;;;23.92;16.75;;;;;;;;;;5016510;28;20032;-67
2023/08/25 01:01:59;;;;;;;25.10;15.80;;;;;;;;;;5017368;28;20064;-67
2023/08/25 01:04:25;;;;;;;25.00;16.15;;;;;;;;;;5016386;28;20631;-67
2023/08/25 01:06:50;;;;;;;24.98;16.10;;;;;;;;;;5016921;28;20475;-67
2023/08/25 01:09:15;;;;;;;23.67;17.00;;;;;;;;;;5013545;28;20037;-67
2023/08/25 01:11:47;;;;;;;27.73;17.58;;;;;;;;;;5020005;28;20041;-67
2023/08/25 01:14:13;;;;;;;26.23;18.05;;;;;;;;;;5020148;28;20051;-67
2023/08/25 01:16:57;;;;;;;29.20;18.70;;;;;;;;;;5017894;28;20781;-67
2023/08/25 01:19:42;;;;;;;23.77;17.80;;;;;;;;;;4995818;28;21327;-67
2023/08/25 01:22:16;;;;;;;24.30;18.35;;;;;;;;;;4995918;28;20513;-67
2023/08/25 01:24:42;;;;;;;32.60;20.67;;;;;;;;;;4998893;28;20397;-67
2023/08/25 01:27:08;;;;;;;28.02;18.48;;;;;;;;;;4998648;28;20058;-67
2023/08/25 01:29:33;;;;;;;29.13;19.63;;;;;;;;;;4996910;28;20042;-67
2023/08/25 01:31:59;;;;;;;32.85;20.10;;;;;;;;;;5028483;28;20199;-67
2023/08/25 01:34:24;;;;;;;28.38;19.65;;;;;;;;;;4995682;28;20123;-67
2023/08/25 01:36:59;;;;;;;24.30;19.77;;;;;;;;;;4996995;28;20406;-67
2023/08/25 01:39:25;;;;;;;38.13;24.92;;;;;;;;;;5015632;28;20520;-67
2023/08/25 01:41:55;;;;;;;36.97;25.15;;;;;;;;;;5017876;28;20052;-67
2023/08/25 01:44:21;;;;;;;33.22;25.88;;;;;;;;;;5021779;28;20033;-67
2023/08/25 01:46:50;;;;;;;38.42;29.85;;;;;;;;;;5016741;28;20087;-67
2023/08/25 01:49:15;;;;;;;36.42;29.10;;;;;;;;;;5014023;28;20043;-67
2023/08/25 01:51:41;;;;;;;41.83;29.02;;;;;;;;;;5048010;28;20062;-67
2023/08/25 01:54:10;;;;;;;33.67;25.67;;;;;;;;;;5016309;28;20479;-67
2023/08/25 01:56:35;;;;;;;32.55;25.80;;;;;;;;;;5016608;28;20036;-68
2023/08/25 01:59:00;;;;;;;32.20;24.60;;;;;;;;;;5020011;28;20524;-67
2023/08/25 02:01:27;;;;;;;38.22;26.52;;;;;;;;;;5013920;28;20068;-67
2023/08/25 02:03:52;;;;;;;33.03;25.92;;;;;;;;;;5016657;28;20033;-66
2023/08/25 02:06:18;;;;;;;33.30;27.17;;;;;;;;;;5016494;28;20587;-66
2023/08/25 02:08:46;;;;;;;34.50;26.52;;;;;;;;;;5018206;28;20494;-67
2023/08/25 02:11:11;;;;;;;31.48;26.60;;;;;;;;;;5016199;28;20640;-67
2023/08/25 02:13:36;;;;;;;40.55;31.55;;;;;;;;;;5017511;28;20033;-67
2023/08/25 02:16:02;;;;;;;47.55;33.63;;;;;;;;;;5017295;28;20291;-67
2023/08/25 02:18:28;;;;;;;40.38;34.10;;;;;;;;;;5017617;28;20032;-67
2023/08/25 02:20:54;;;;;;;39.60;32.03;;;;;;;;;;5015158;28;20502;-67
2023/08/25 02:23:20;;;;;;;43.45;35.42;;;;;;;;;;5016578;28;20037;-67
2023/08/25 02:25:45;;;;;;;46.63;35.15;;;;;;;;;;5015417;28;20437;-67
2023/08/25 02:28:12;;;;;;;43.10;34.78;;;;;;;;;;5016650;28;20513;-66
2023/08/25 02:30:40;;;;;;;43.85;33.78;;;;;;;;;;5052757;28;20280;-66
2023/08/25 02:33:06;;;;;;;50.55;37.65;;;;;;;;;;5023463;27;20041;-68
2023/08/25 02:35:31;;;;;;;50.05;38.30;;;;;;;;;;5021170;27;20095;-66
2023/08/25 02:38:06;;;;;;;45.92;34.88;;;;;;;;;;5020866;28;20537;-67
2023/08/25 02:40:34;;;;;;;41.58;33.00;;;;;;;;;;5026703;28;20038;-66
2023/08/25 02:43:00;;;;;;;39.15;30.42;;;;;;;;;;5022391;27;20044;-67
2023/08/25 02:45:26;;;;;;;45.05;33.05;;;;;;;;;;5054763;27;20580;-67
2023/08/25 02:47:51;;;;;;;44.75;30.13;;;;;;;;;;5020490;27;20051;-67
2023/08/25 02:50:17;;;;;;;45.45;32.95;;;;;;;;;;5021875;27;20375;-67
2023/08/25 02:52:43;;;;;;;43.13;30.10;;;;;;;;;;5024450;27;20044;-67
2023/08/25 02:55:08;;;;;;;34.92;27.65;;;;;;;;;;5023482;28;20512;-67
2023/08/25 02:57:34;;;;;;;41.28;28.90;;;;;;;;;;5022093;27;20114;-67
2023/08/25 03:00:03;;;;;;;36.10;28.23;;;;;;;;;;5022357;27;20096;-67
2023/08/25 03:02:29;;;;;;;41.70;31.48;;;;;;;;;;5020735;28;20048;-68
2023/08/25 03:04:56;;;;;;;38.25;29.48;;;;;;;;;;5023176;27;20040;-67
2023/08/25 03:07:24;;;;;;;42.38;28.40;;;;;;;;;;5020858;27;20052;-67
2023/08/25 03:09:49;;;;;;;47.92;35.55;;;;;;;;;;5023410;28;20183;-67
2023/08/25 03:12:14;;;;;;;48.22;35.70;;;;;;;;;;5020879;27;20565;-67
2023/08/25 03:14:40;;;;;;;46.72;36.35;;;;;;;;;;5022085;27;20090;-67
2023/08/25 03:17:05;;;;;;;48.58;38.05;;;;;;;;;;5024115;28;20144;-67
2023/08/25 03:19:30;;;;;;;47.40;38.83;;;;;;;;;;5021711;28;20036;-67
2023/08/25 03:21:56;;;;;;;47.50;37.47;;;;;;;;;;5022957;27;20459;-68
2023/08/25 03:24:21;;;;;;;47.75;35.13;;;;;;;;;;5042787;27;20029;-67
2023/08/25 03:26:46;;;;;;;44.53;33.03;;;;;;;;;;5022834;28;20260;-67
2023/08/25 03:29:12;;;;;;;45.50;34.67;;;;;;;;;;5019602;27;20045;-67
2023/08/25 03:31:38;;;;;;;44.85;33.80;;;;;;;;;;5026471;27;20041;-67
2023/08/25 03:34:03;;;;;;;42.28;32.88;;;;;;;;;;5021381;27;21028;-67
2023/08/25 03:36:30;;;;;;;44.95;34.35;;;;;;;;;;5025212;28;20033;-67
2023/08/25 03:38:55;;;;;;;49.80;34.25;;;;;;;;;;5019992;27;20064;-67
2023/08/25 03:41:23;;;;;;;48.22;34.72;;;;;;;;;;5020110;27;20041;-67
2023/08/25 03:43:49;;;;;;;48.85;35.90;;;;;;;;;;5018930;28;21232;-67
2023/08/25 03:46:14;;;;;;;46.97;35.28;;;;;;;;;;5018092;28;20649;-67
2023/08/25 03:48:42;;;;;;;45.33;33.30;;;;;;;;;;5016926;28;21910;-67
2023/08/25 03:51:10;;;;;;;51.33;34.65;;;;;;;;;;5017815;28;20041;-68
2023/08/25 03:53:35;;;;;;;47.60;35.22;;;;;;;;;;5020030;28;20529;-67
2023/08/25 03:56:04;;;;;;;54.35;40.53;;;;;;;;;;5019016;28;20091;-67
2023/08/25 03:58:29;;;;;;;56.72;43.50;;;;;;;;;;5020548;28;20455;-67
2023/08/25 04:00:55;;;;;;;58.92;44.25;;;;;;;;;;5018445;28;20112;-67
2023/08/25 04:03:21;;;;;;;59.65;44.60;;;;;;;;;;5018206;28;20062;-67
2023/08/25 04:05:48;;;;;;;57.63;40.25;;;;;;;;;;5019616;28;20173;-68
2023/08/25 04:08:14;;;;;;;56.80;39.50;;;;;;;;;;5017903;28;20234;-67
2023/08/25 04:10:41;;;;;;;56.33;39.47;;;;;;;;;;5022151;28;20158;-67
2023/08/25 04:13:07;;;;;;;55.00;39.13;;;;;;;;;;5018281;28;20048;-67
2023/08/25 04:15:32;;;;;;;55.38;39.30;;;;;;;;;;5005054;28;20034;-67
2023/08/25 04:17:57;;;;;;;64.65;46.33;;;;;;;;;;5021508;28;20048;-67
2023/08/25 04:20:23;;;;;;;58.13;43.95;;;;;;;;;;5017954;28;20044;-67
2023/08/25 04:22:48;;;;;;;63.88;46.00;;;;;;;;;;5019655;28;20389;-67
2023/08/25 04:25:13;;;;;;;64.20;48.53;;;;;;;;;;5018818;28;20053;-67
2023/08/25 04:27:39;;;;;;;60.35;42.97;;;;;;;;;;5016905;28;20053;-67
2023/08/25 04:30:05;;;;;;;63.10;43.88;;;;;;;;;;5018492;28;20668;-67
2023/08/25 04:32:34;;;;;;;54.70;40.70;;;;;;;;;;5003199;28;20047;-67
2023/08/25 04:35:03;;;;;;;72.45;48.70;;;;;;;;;;5016192;28;20091;-67
2023/08/25 04:37:28;;;;;;;81.82;49.28;;;;;;;;;;5017724;28;20033;-68
2023/08/25 04:39:55;;;;;;;93.32;50.75;;;;;;;;;;5018499;28;20037;-66
2023/08/25 04:42:20;;;;;;;87.50;48.60;;;;;;;;;;5022439;28;20531;-69
2023/08/25 04:44:47;;;;;;;91.90;52.88;;;;;;;;;;5018706;28;20037;-68
2023/08/25 04:47:12;;;;;;;98.05;53.95;;;;;;;;;;5004145;28;20060;-68
2023/08/25 04:49:40;;;;;;;97.70;52.55;;;;;;;;;;5016311;28;20083;-68
2023/08/25 04:52:08;;;;;;;99.13;53.90;;;;;;;;;;5018796;28;20029;-68
2023/08/25 04:54:35;;;;;;;100.15;54.63;;;;;;;;;;5015726;28;20044;-68
2023/08/25 04:57:01;;;;;;;103.18;54.70;;;;;;;;;;5017321;28;20029;-68
2023/08/25 04:59:28;;;;;;;93.88;48.63;;;;;;;;;;5015215;28;20248;-68
2023/08/25 05:01:53;;;;;;;96.10;50.88;;;;;;;;;;5017824;28;20033;-69
2023/08/25 05:04:19;;;;;;;93.70;51.38;;;;;;;;;;5012696;28;20041;-68
2023/08/25 05:06:44;;;;;;;89.25;47.70;;;;;;;;;;5014156;28;20026;-68
2023/08/25 05:09:12;;;;;;;91.10;47.35;;;;;;;;;;5013637;28;20064;-66
2023/08/25 05:11:39;;;;;;;92.03;46.65;;;;;;;;;;5016497;28;20601;-66
2023/08/25 05:14:05;;;;;;;72.30;38.38;;;;;;;;;;5021276;28;20397;-67
2023/08/25 05:16:30;;;;;;;73.15;41.50;;;;;;;;;;5019589;28;20489;-67
2023/08/25 05:18:58;;;;;;;74.75;40.80;;;;;;;;;;5016491;28;20408;-67
2023/08/25 05:21:23;;;;;;;77.30;43.35;;;;;;;;;;4999685;28;20106;-66
2023/08/25 05:23:49;;;;;;;70.53;42.40;;;;;;;;;;4993850;28;20037;-66
2023/08/25 05:26:14;;;;;;;73.53;44.17;;;;;;;;;;4997613;28;20042;-66
2023/08/25 05:28:40;;;;;;;79.90;45.15;;;;;;;;;;4993325;28;20053;-66
2023/08/25 05:31:08;;;;;;;78.22;40.33;;;;;;;;;;4996666;28;20038;-66
2023/08/25 05:33:36;;;;;;;79.55;45.33;;;;;;;;;;4997423;28;20076;-73
2023/08/25 05:36:04;;;;;;;99.82;48.58;;;;;;;;;;5023338;28;20060;-74
2023/08/25 05:38:32;;;;;;;83.40;47.53;;;;;;;;;;5009780;28;20498;-73
2023/08/25 05:40:57;;;;;;;85.20;48.40;;;;;;;;;;4993414;28;20092;-73
2023/08/25 05:43:22;;;;;;;99.97;52.33;;;;;;;;;;4995406;28;20651;-73
2023/08/25 05:45:50;;;;;;;96.43;48.00;;;;;;;;;;4994203;28;20126;-74
2023/08/25 05:48:15;;;;;;;88.70;47.75;;;;;;;;;;4977733;28;20049;-73
2023/08/25 05:50:41;;;;;;;86.60;44.60;;;;;;;;;;4995086;28;20061;-74
2023/08/25 05:53:06;;;;;;;78.55;39.53;;;;;;;;;;4995977;28;20550;-74
2023/08/25 05:55:31;;;;;;;77.57;42.00;;;;;;;;;;4994008;28;20065;-73
2023/08/25 05:57:59;;;;;;;80.60;42.60;;;;;;;;;;4995735;28;20037;-74
2023/08/25 06:00:24;;;;;;;78.75;42.13;;;;;;;;;;4999533;28;20502;-73
2023/08/25 06:02:49;;;;;;;77.13;39.13;;;;;;;;;;5000683;28;20049;-73
2023/08/25 06:05:15;;;;;;;64.07;34.85;;;;;;;;;;4991859;28;20033;-73
2023/08/25 06:07:40;;;;;;;73.65;39.88;;;;;;;;;;4993111;28;20573;-73
2023/08/25 06:10:06;;;;;;;69.15;39.05;;;;;;;;;;4994214;28;20583;-73
2023/08/25 06:12:31;;;;;;;73.20;42.05;;;;;;;;;;4994240;28;20519;-73
2023/08/25 06:14:59;;;;;;;68.78;38.83;;;;;;;;;;4997108;28;20538;-74
2023/08/25 06:17:24;;;;;;;64.75;38.60;;;;;;;;;;4998391;28;20037;-73
2023/08/25 06:19:49;;;;;;;66.63;38.05;;;;;;;;;;4996941;28;20091;-72
2023/08/25 06:22:15;;;;;;;71.72;41.22;;;;;;;;;;4996140;28;20030;-75
2023/08/25 06:24:40;;;;;;;69.63;39.40;;;;;;;;;;4995610;28;20069;-75
2023/08/25 06:27:05;;;;;;;70.07;40.72;;;;;;;;;;4996661;28;20195;-75
2023/08/25 06:29:33;;;;;;;62.20;35.95;;;;;;;;;;4996070;28;20461;-74
2023/08/25 06:31:58;;;;;;;69.13;38.88;;;;;;;;;;4989614;28;20037;-74
2023/08/25 06:34:27;;;;;;;66.53;39.10;;;;;;;;;;4986863;28;20041;-72
2023/08/25 06:36:52;;;;;;;72.93;40.33;;;;;;;;;;5028541;28;20038;-77
2023/08/25 06:39:17;;;;;;;66.10;36.65;;;;;;;;;;4992810;28;20281;-76
2023/08/25 06:41:46;;;;;;;62.92;36.70;;;;;;;;;;4993556;28;20429;-76
2023/08/25 06:44:11;;;;;;;62.80;37.42;;;;;;;;;;4996393;28;20033;-77
2023/08/25 06:46:36;;;;;;;67.22;37.20;;;;;;;;;;4996152;28;20536;-76
2023/08/25 06:49:02;;;;;;;66.60;37.92;;;;;;;;;;4993126;28;20046;-75
2023/08/25 06:51:27;;;;;;;68.18;37.35;;;;;;;;;;4995296;28;20332;-77
2023/08/25 06:53:52;;;;;;;65.25;35.28;;;;;;;;;;4996270;28;20053;-77
2023/08/25 06:56:21;;;;;;;60.25;35.80;;;;;;;;;;5012703;28;20033;-75
2023/08/25 06:58:49;;;;;;;52.97;33.97;;;;;;;;;;5016262;28;20040;-78
2023/08/25 07:01:14;;;;;;;53.80;32.17;;;;;;;;;;5014307;28;20593;-79
2023/08/25 07:03:42;;;;;;;44.72;28.90;;;;;;;;;;5017030;28;20037;-77
2023/08/25 07:06:08;;;;;;;50.83;30.98;;;;;;;;;;5012166;28;20033;-73
2023/08/25 07:08:33;;;;;;;50.80;30.05;;;;;;;;;;5000127;28;20080;-72
2023/08/25 07:11:03;;;;;;;50.28;31.05;;;;;;;;;;5015228;28;20079;-73
2023/08/25 07:13:30;;;;;;;56.55;33.35;;;;;;;;;;5014540;28;20037;-73
2023/08/25 07:15:55;;;;;;;48.92;31.60;;;;;;;;;;5016263;28;20036;-73
2023/08/25 07:18:24;;;;;;;45.83;29.80;;;;;;;;;;5018491;28;20099;-73
2023/08/25 07:20:49;;;;;;;46.15;28.85;;;;;;;;;;5015989;28;20041;-73
2023/08/25 07:23:15;;;;;;;41.08;29.40;;;;;;;;;;5006620;28;20037;-73
2023/08/25 07:25:43;;;;;;;40.30;28.42;;;;;;;;;;5016608;28;20037;-73
2023/08/25 07:28:11;;;;;;;35.05;24.27;;;;;;;;;;5017254;28;20060;-75
2023/08/25 07:30:37;;;;;;;35.47;24.30;;;;;;;;;;5017060;28;20759;-72
2023/08/25 07:33:02;;;;;;;29.77;20.58;;;;;;;;;;5018744;28;20029;-73
2023/08/25 07:35:28;;;;;;;30.67;22.55;;;;;;;;;;5015809;28;20095;-70
2023/08/25 07:37:53;;;;;;;35.60;22.92;;;;;;;;;;5016662;28;20615;-73
2023/08/25 07:40:19;;;;;;;30.05;21.58;;;;;;;;;;5018627;28;20040;-73
2023/08/25 07:42:44;;;;;;;25.67;18.00;;;;;;;;;;5022611;28;20045;-74
2023/08/25 07:45:12;;;;;;;22.75;16.17;;;;;;;;;;5018808;28;20059;-72
2023/08/25 07:47:38;;;;;;;22.58;15.43;;;;;;;;;;5020422;28;20056;-73
2023/08/25 07:50:03;;;;;;;24.55;16.15;;;;;;;;;;5017374;28;20250;-74
2023/08/25 07:52:28;;;;;;;25.58;15.32;;;;;;;;;;5018332;28;20091;-73
2023/08/25 07:54:54;;;;;;;24.58;14.77;;;;;;;;;;5019128;28;20733;-71
2023/08/25 07:57:19;;;;;;;20.77;14.23;;;;;;;;;;5023531;28;20036;-71
2023/08/25 07:59:45;;;;;;;25.02;13.77;;;;;;;;;;5019529;28;20482;-72
2023/08/25 08:02:13;;;;;;;24.38;14.70;;;;;;;;;;4997137;28;20473;-72
2023/08/25 08:04:38;;;;;;;22.92;13.88;;;;;;;;;;5017571;28;20037;-73
2023/08/25 08:07:03;;;;;;;21.45;14.55;;;;;;;;;;5017127;27;20633;-64
2023/08/25 08:09:31;;;;;;;22.00;15.30;;;;;;;;;;5017895;28;20060;-71
2023/08/25 08:11:57;;;;;;;22.67;15.23;;;;;;;;;;5019203;28;20391;-71
2023/08/25 08:14:22;;;;;;;23.58;14.35;;;;;;;;;;5024201;28;20037;-71
2023/08/25 08:16:49;;;;;;;22.15;14.45;;;;;;;;;;5006621;28;20094;-71
2023/08/25 08:19:15;;;;;;;22.60;14.35;;;;;;;;;;5032592;28;20033;-72
2023/08/25 08:21:42;;;;;;;22.90;14.63;;;;;;;;;;5020050;28;20043;-72
2023/08/25 08:24:09;;;;;;;20.35;13.32;;;;;;;;;;5017825;28;20037;-72
2023/08/25 08:26:36;;;;;;;21.48;13.23;;;;;;;;;;5016209;28;20045;-72
2023/08/25 08:29:03;;;;;;;17.38;12.30;;;;;;;;;;5016931;28;20171;-68
2023/08/25 08:31:29;;;;;;;22.02;14.18;;;;;;;;;;5018802;28;22427;-71
2023/08/25 08:33:57;;;;;;;16.10;11.52;;;;;;;;;;5018743;28;20072;-71
2023/08/25 08:36:23;;;;;;;18.33;11.63;;;;;;;;;;5001664;28;20037;-72
2023/08/25 08:38:48;;;;;;;17.38;12.20;;;;;;;;;;4997784;28;20033;-73
2023/08/25 08:41:15;;;;;;;24.60;14.10;;;;;;;;;;5000236;28;20042;-73
2023/08/25 08:43:44;;;;;;;19.35;13.88;;;;;;;;;;5029892;28;20133;-73
2023/08/25 08:46:15;;;;;;;21.65;15.32;;;;;;;;;;5002025;28;20635;-72
2023/08/25 08:48:40;;;;;;;19.98;15.15;;;;;;;;;;4994836;28;21895;-73
2023/08/25 08:51:06;;;;;;;21.05;14.40;;;;;;;;;;5011326;28;20456;-73
2023/08/25 08:53:31;;;;;;;19.98;12.80;;;;;;;;;;5015306;28;20044;-72
2023/08/25 08:55:58;;;;;;;23.00;14.85;;;;;;;;;;5014824;28;20223;-71
2023/08/25 08:58:23;;;;;;;25.15;15.85;;;;;;;;;;5008983;28;20036;-71
2023/08/25 09:00:49;;;;;;;26.75;15.07;;;;;;;;;;5016071;28;20036;-72
2023/08/25 09:03:17;;;;;;;27.05;16.20;;;;;;;;;;5034982;28;20034;-71
2023/08/25 09:05:43;;;;;;;27.52;16.67;;;;;;;;;;5043384;28;20040;-72
2023/08/25 09:08:09;;;;;;;34.35;18.00;;;;;;;;;;5005001;28;20073;-74
2023/08/25 09:10:34;;;;;;;30.15;18.00;;;;;;;;;;5004860;28;22420;-71
2023/08/25 09:13:00;;;;;;;33.47;18.77;;;;;;;;;;5011937;28;20041;-71
2023/08/25 09:15:26;;;;;;;33.00;18.85;;;;;;;;;;5017216;28;22342;-71
2023/08/25 09:18:08;;;;;;;30.92;18.27;;;;;;;;;;5015037;28;20033;-71
2023/08/25 09:20:35;;;;;;;27.23;18.15;;;;;;;;;;5013364;28;20038;-71
2023/08/25 09:23:01;;;;;;;27.08;17.55;;;;;;;;;;5000536;28;20628;-69
2023/08/25 09:25:26;;;;;;;26.08;17.75;;;;;;;;;;5020331;28;20498;-68
2023/08/25 09:27:58;;;;;;;26.83;18.15;;;;;;;;;;5015379;28;20103;-68
2023/08/25 09:30:35;;;;;;;25.65;16.70;;;;;;;;;;5011895;28;20061;-71
2023/08/25 09:33:05;;;;;;;26.85;16.00;;;;;;;;;;5017563;28;20067;-70
2023/08/25 09:35:31;;;;;;;22.42;16.05;;;;;;;;;;5013301;28;20532;-73
2023/08/25 09:37:57;;;;;;;24.35;16.52;;;;;;;;;;5003603;28;20491;-70
2023/08/25 09:40:22;;;;;;;28.27;16.48;;;;;;;;;;5015076;28;20037;-68
2023/08/25 09:42:50;;;;;;;24.38;16.27;;;;;;;;;;5018363;28;20080;-71
2023/08/25 09:45:16;;;;;;;26.42;15.75;;;;;;;;;;5013096;28;20043;-69
2023/08/25 09:47:42;;;;;;;23.80;16.10;;;;;;;;;;5024962;28;20387;-70
2023/08/25 09:50:15;;;;;;;23.85;15.52;;;;;;;;;;4997231;28;20115;-71
2023/08/25 09:52:41;;;;;;;;;;;;;;;;;;5012661;28;20041;-70
2023/08/25 09:55:08;;;;;;;21.47;15.47;;;;;;;;;;5041302;28;19916;-72
2023/08/25 09:57:34;;;;;;;22.98;16.17;;;;;;;;;;5011619;28;20284;-69
2023/08/25 10:00:04;;;;;;;23.80;15.20;;;;;;;;;;5012765;28;20071;-70
2023/08/25 10:02:30;;;;;;;23.50;15.68;;;;;;;;;;5017360;28;20136;-72
2023/08/25 10:04:56;;;;;;;25.40;15.68;;;;;;;;;;5003507;28;20477;-73
2023/08/25 10:07:21;;;;;;;25.60;15.57;;;;;;;;;;5017185;28;20058;-71
2023/08/25 10:09:48;;;;;;;21.77;15.75;;;;;;;;;;5013743;28;20029;-74
2023/08/25 10:12:15;;;;;;;20.17;14.43;;;;;;;;;;5019462;28;20033;-73
2023/08/25 10:14:43;;;;;;;23.30;14.57;;;;;;;;;;5017155;28;20120;-70
2023/08/25 10:17:11;;;;;;;20.98;14.07;;;;;;;;;;5014777;28;20029;-71
2023/08/25 10:19:38;;;;;;;19.05;12.85;;;;;;;;;;5013691;28;20532;-69
2023/08/25 10:22:04;;;;;;;22.98;13.65;;;;;;;;;;5009194;28;20182;-72
2023/08/25 10:24:31;;;;;;;21.63;13.40;;;;;;;;;;5014957;28;20470;-73
2023/08/25 10:26:57;;;;;;;19.17;12.68;;;;;;;;;;5016289;28;20030;-71
2023/08/25 10:29:23;;;;;;;18.15;12.68;;;;;;;;;;5016088;28;20323;-72
2023/08/25 10:31:51;;;;;;;19.60;11.57;;;;;;;;;;5012816;28;20813;-73
2023/08/25 10:34:43;;;;;;;20.05;12.30;;;;;;;;;;5047131;28;20051;-72
2023/08/25 10:37:12;;;;;;;16.50;11.02;;;;;;;;;;5014064;28;20132;-75
2023/08/25 10:39:51;;;;;;;18.23;11.25;;;;;;;;;;5017092;28;20057;-74
2023/08/25 10:42:26;;;;;;;17.70;10.90;;;;;;;;;;5027615;28;20482;-73
2023/08/25 10:44:55;;;;;;;16.13;10.07;;;;;;;;;;5014001;28;20336;-71
2023/08/25 10:47:24;;;;;;;22.65;10.77;;;;;;;;;;5016245;28;20111;-73
2023/08/25 10:49:56;;;;;;;18.83;9.93;;;;;;;;;;5016234;28;20288;-75
2023/08/25 10:52:22;;;;;;;14.20;9.95;;;;;;;;;;5049520;28;20252;-73
2023/08/25 10:54:51;;;;;;;15.65;10.15;;;;;;;;;;5014543;28;20314;-73
2023/08/25 10:57:25;;;;;;;13.98;10.10;;;;;;;;;;5044514;28;20033;-70
2023/08/25 10:59:53;;;;;;;14.98;9.10;;;;;;;;;;5012273;28;20125;-74
2023/08/25 11:02:33;;;;;;;12.63;9.50;;;;;;;;;;5001980;28;20224;-74
2023/08/25 11:05:17;;;;;;;13.07;8.60;;;;;;;;;;5035220;28;20554;-74
2023/08/25 11:07:43;;;;;;;16.85;8.95;;;;;;;;;;5018732;28;20414;-72
2023/08/25 11:10:14;;;;;;;13.18;8.57;;;;;;;;;;5016484;28;20048;-73
2023/08/25 11:12:40;;;;;;;13.13;8.63;;;;;;;;;;5016907;28;20467;-72
2023/08/25 11:15:09;;;;;;;15.75;8.60;;;;;;;;;;5019780;28;20132;-73
2023/08/25 11:17:34;;;;;;;15.30;8.90;;;;;;;;;;5015015;28;20029;-72
2023/08/25 11:20:00;;;;;;;13.48;8.60;;;;;;;;;;5003304;28;20064;-72
2023/08/25 11:22:27;;;;;;;12.73;8.13;;;;;;;;;;5049632;28;20075;-72
2023/08/25 11:24:53;;;;;;;13.65;8.38;;;;;;;;;;5018771;28;20259;-66
2023/08/25 11:27:22;;;;;;;12.50;8.07;;;;;;;;;;5018336;28;20088;-66
2023/08/25 11:29:48;;;;;;;17.95;8.93;;;;;;;;;;5021443;28;20430;-66
2023/08/25 11:32:17;;;;;;;10.07;7.22;;;;;;;;;;5018670;28;20030;-67
2023/08/25 11:34:48;;;;;;;10.63;6.93;;;;;;;;;;5048015;28;20120;-66
2023/08/25 11:37:14;;;;;;;11.30;6.57;;;;;;;;;;5017766;28;20120;-65
2023/08/25 11:39:43;;;;;;;11.00;6.32;;;;;;;;;;5018611;28;20041;-66
2023/08/25 11:42:09;;;;;;;10.00;6.45;;;;;;;;;;5019177;28;20037;-69
2023/08/25 11:44:38;;;;;;;12.52;6.60;;;;;;;;;;5017916;28;21856;-68
2023/08/25 11:47:03;;;;;;;12.27;6.20;;;;;;;;;;5017360;28;20139;-67
2023/08/25 11:49:29;;;;;;;10.50;5.97;;;;;;;;;;5016065;28;20095;-67
2023/08/25 11:51:54;;;;;;;10.52;6.20;;;;;;;;;;5016118;28;20428;-66
2023/08/25 11:54:22;;;;;;;14.48;6.78;;;;;;;;;;5017586;28;20132;-66
2023/08/25 11:56:49;;;;;;;10.85;5.78;;;;;;;;;;5017376;28;20056;-67
2023/08/25 11:59:20;;;;;;;10.70;6.32;;;;;;;;;;5016592;28;20221;-67
2023/08/25 12:01:49;;;;;;;10.10;6.55;;;;;;;;;;5048941;28;20060;-66
2023/08/25 12:04:24;;;;;;;9.10;6.65;;;;;;;;;;5046648;28;20037;-68
2023/08/25 12:06:57;;;;;;;10.90;7.32;;;;;;;;;;5015952;28;20103;-65
2023/08/25 12:09:24;;;;;;;11.73;6.22;;;;;;;;;;5016404;28;20414;-64
2023/08/25 12:11:50;;;;;;;9.45;6.30;;;;;;;;;;5048933;28;20224;-63
2023/08/25 12:14:25;;;;;;;9.55;6.00;;;;;;;;;;5047899;28;20075;-64
2023/08/25 12:16:51;;;;;;;10.68;6.63;;;;;;;;;;5016271;28;20118;-65
2023/08/25 12:19:16;;;;;;;8.52;6.63;;;;;;;;;;5015455;28;20556;-67
2023/08/25 12:21:41;;;;;;;11.48;7.20;;;;;;;;;;5015575;28;20265;-63
2023/08/25 12:24:06;;;;;;;8.10;6.22;;;;;;;;;;5048260;28;20052;-66
2023/08/25 12:26:32;;;;;;;12.15;6.70;;;;;;;;;;5017714;28;20059;-66
2023/08/25 12:28:59;;;;;;;10.10;5.82;;;;;;;;;;5014277;28;20287;-62
2023/08/25 12:31:27;;;;;;;9.77;6.25;;;;;;;;;;5017058;28;20402;-65
2023/08/25 12:33:52;;;;;;;6.00;5.10;;;;;;;;;;5049506;28;21909;-64
2023/08/25 12:36:18;;;;;;;7.40;5.13;;;;;;;;;;5018129;28;20029;-66
2023/08/25 12:38:43;;;;;;;8.82;4.70;;;;;;;;;;5016590;28;20040;-64
2023/08/25 12:41:08;;;;;;;6.97;4.85;;;;;;;;;;5016825;28;20071;-65
2023/08/25 12:43:35;;;;;;;7.22;4.95;;;;;;;;;;5018930;28;20057;-65
2023/08/25 12:46:00;;;;;;;8.95;5.13;;;;;;;;;;4993985;28;20531;-65
2023/08/25 12:48:26;;;;;;;7.90;4.80;;;;;;;;;;5013922;28;20045;-66
2023/08/25 12:50:51;;;;;;;5.18;4.00;;;;;;;;;;5042996;28;20037;-63
2023/08/25 12:53:20;;;;;;;7.05;3.90;;;;;;;;;;5020313;28;20123;-64
2023/08/25 12:55:45;;;;;;;7.32;4.35;;;;;;;;;;5014878;28;20033;-63
2023/08/25 12:58:10;;;;;;;8.05;4.10;;;;;;;;;;5013442;28;20650;-65
2023/08/25 13:00:38;;;;;;;6.97;4.10;;;;;;;;;;5011894;28;20061;-65
2023/08/25 13:03:03;;;;;;;6.07;3.83;;;;;;;;;;5007554;28;20037;-65
2023/08/25 13:05:29;;;;;;;8.68;3.90;;;;;;;;;;5010006;28;20064;-64
2023/08/25 13:07:57;;;;;;;8.02;3.90;;;;;;;;;;5017636;28;20057;-65
2023/08/25 13:10:22;;;;;;;8.60;3.67;;;;;;;;;;5012616;28;20037;-66
2023/08/25 13:12:47;;;;;;;7.43;3.60;;;;;;;;;;5011151;28;20032;-63
2023/08/25 13:15:15;;;;;;;5.65;3.83;;;;;;;;;;5013830;28;20519;-63
2023/08/25 13:17:44;;;;;;;4.50;2.92;;;;;;;;;;5011824;28;20032;-63
2023/08/25 13:20:10;;;;;;;5.15;3.22;;;;;;;;;;5013619;28;20196;-64
2023/08/25 13:22:36;;;;;;;5.05;3.42;;;;;;;;;;5013013;28;20043;-63
2023/08/25 13:25:01;;;;;;;5.82;3.63;;;;;;;;;;5017793;28;20079;-66
2023/08/25 13:27:27;;;;;;;5.50;3.30;;;;;;;;;;4997657;28;20690;-65
2023/08/25 13:29:52;;;;;;;5.95;3.45;;;;;;;;;;5014800;28;20124;-64
2023/08/25 13:32:17;;;;;;;6.10;3.72;;;;;;;;;;5012503;28;20090;-63
2023/08/25 13:34:43;;;;;;;5.80;3.75;;;;;;;;;;4998189;28;20041;-62
2023/08/25 13:37:09;;;;;;;5.68;3.85;;;;;;;;;;5013299;28;20208;-63
2023/08/25 13:39:38;;;;;;;8.00;3.58;;;;;;;;;;5016384;28;20044;-63
2023/08/25 13:42:04;;;;;;;6.72;3.75;;;;;;;;;;5014394;28;20075;-63
2023/08/25 13:44:30;;;;;;;5.40;3.83;;;;;;;;;;5019407;28;20033;-65
2023/08/25 13:46:57;;;;;;;7.25;4.18;;;;;;;;;;5019539;28;20082;-65
2023/08/25 13:49:23;;;;;;;5.70;3.63;;;;;;;;;;5015726;28;20045;-64
2023/08/25 13:51:48;;;;;;;6.75;3.78;;;;;;;;;;5013517;28;20029;-63
2023/08/25 13:54:14;;;;;;;6.95;4.38;;;;;;;;;;5016942;28;20044;-65
2023/08/25 13:56:41;;;;;;;8.88;4.43;;;;;;;;;;5013363;28;20042;-63
2023/08/25 13:59:07;;;;;;;6.90;4.30;;;;;;;;;;5014758;28;20044;-62
2023/08/25 14:01:34;;;;;;;8.52;4.43;;;;;;;;;;5029107;28;20037;-64
2023/08/25 14:04:03;;;;;;;8.20;4.57;;;;;;;;;;5015939;28;20540;-64
2023/08/25 14:06:28;;;;;;;6.53;4.50;;;;;;;;;;5017677;28;20063;-64
2023/08/25 14:08:54;;;;;;;7.57;4.45;;;;;;;;;;5044004;28;20049;-63
2023/08/25 14:11:22;;;;;;;5.90;4.03;;;;;;;;;;5010639;28;20029;-63
2023/08/25 14:13:50;;;;;;;8.50;3.88;;;;;;;;;;5013745;28;20210;-64
2023/08/25 14:16:18;;;;;;;6.40;3.20;;;;;;;;;;5013554;28;20484;-64
2023/08/25 14:18:43;;;;;;;5.80;3.13;;;;;;;;;;5012631;28;20044;-64